createdAt,value
2022-12-15T00:01:35.384Z,44.33
2022-12-15T00:06:55.691Z,38.23
2022-12-15T00:12:16.927Z,35.87
2022-12-15T00:17:37.620Z,37.73
2022-12-15T00:22:58.030Z,43.27
2022-12-15T00:28:18.253Z,36.57
2022-12-15T00:33:38.667Z,37.40
2022-12-15T00:38:41.501Z,32.93
2022-12-15T00:43:43.432Z,38.60
2022-12-15T00:48:50.435Z,42.07
2022-12-15T00:54:17.758Z,43.37
2022-12-15T00:59:38.526Z,39.23
2022-12-15T01:04:58.667Z,38.77
2022-12-15T01:10:19.503Z,39.30
2022-12-15T01:15:39.914Z,41.73
2022-12-15T01:20:41.653Z,37.70
2022-12-15T01:25:45.466Z,40.50
2022-12-15T01:30:51.507Z,38.07
2022-12-15T01:36:00.083Z,41.50
2022-12-15T01:41:03.923Z,38.33
2022-12-15T01:46:12.094Z,39.70
2022-12-15T01:51:24.778Z,42.30
2022-12-15T01:56:37.064Z,41.97
2022-12-15T02:01:40.337Z,43.43
2022-12-15T02:06:45.042Z,40.13
2022-12-15T02:12:01.585Z,42.20
2022-12-15T02:17:30.828Z,43.30
2022-12-15T02:23:10.926Z,34.47
2022-12-15T02:28:53.204Z,38.13
2022-12-15T02:34:04.120Z,42.97
2022-12-15T02:39:09.256Z,36.07
2022-12-15T02:44:22.693Z,34.73
2022-12-15T02:49:24.927Z,43.07
2022-12-15T02:54:53.638Z,29.83
2022-12-15T03:00:01.709Z,39.90
2022-12-15T03:05:03.757Z,38.07
2022-12-15T03:10:13.674Z,36.33
2022-12-15T03:15:19.408Z,45.03
2022-12-15T03:20:23.203Z,43.67
2022-12-15T03:25:27.629Z,42.03
2022-12-15T03:30:29.452Z,47.67
2022-12-15T03:35:40.813Z,53.73
2022-12-15T03:40:42.660Z,48.33
2022-12-15T03:45:44.510Z,46.07
2022-12-15T03:50:48.197Z,50.80
2022-12-15T03:55:50.075Z,50.90
2022-12-15T04:00:55.835Z,45.63
2022-12-15T04:05:59.682Z,45.47
2022-12-15T04:11:01.421Z,44.67
2022-12-15T04:16:06.667Z,46.37
2022-12-15T04:21:08.339Z,45.73
2022-12-15T04:26:28.451Z,41.63
2022-12-15T04:31:53.163Z,41.00
2022-12-15T04:37:13.881Z,43.33
2022-12-15T04:42:34.854Z,40.00
2022-12-15T04:47:55.252Z,39.77
2022-12-15T04:53:26.230Z,42.80
2022-12-15T04:58:46.461Z,40.47
2022-12-15T05:04:06.818Z,37.37
2022-12-15T05:16:14.725Z,45.27
2022-12-15T05:21:36.101Z,43.37
2022-12-15T05:26:58.771Z,45.70
2022-12-15T05:32:04.182Z,44.30
2022-12-15T05:37:07.341Z,49.90
2022-12-15T05:42:09.351Z,49.10
2022-12-15T05:47:11.788Z,46.67
2022-12-15T05:52:13.581Z,49.20
2022-12-15T05:57:15.304Z,43.60
2022-12-15T06:02:22.028Z,45.67
2022-12-15T06:07:23.904Z,39.30
2022-12-15T06:12:28.839Z,49.50
2022-12-15T06:17:36.881Z,55.50
2022-12-15T06:22:46.565Z,44.80
2022-12-15T06:27:51.389Z,40.67
2022-12-15T06:32:57.850Z,39.07
2022-12-15T06:38:02.585Z,41.70
2022-12-15T06:43:07.638Z,49.30
2022-12-15T06:48:18.712Z,40.13
2022-12-15T06:53:24.292Z,36.20
2022-12-15T06:58:25.973Z,33.40
2022-12-15T07:03:30.915Z,38.30
2022-12-15T07:08:41.160Z,34.87
2022-12-15T07:13:43.498Z,38.23
2022-12-15T07:18:45.310Z,42.40
2022-12-15T07:23:56.786Z,36.87
2022-12-15T07:28:59.113Z,33.03
2022-12-15T07:34:03.480Z,31.57
2022-12-15T07:39:10.393Z,36.37
2022-12-15T07:44:12.285Z,43.20
2022-12-15T07:49:17.130Z,39.03
2022-12-15T07:54:21.296Z,38.57
2022-12-15T07:59:27.618Z,32.87
2022-12-15T08:04:32.218Z,35.27
2022-12-15T08:09:36.673Z,42.03
2022-12-15T08:14:38.353Z,32.67
2022-12-15T08:19:40.124Z,37.00
2022-12-15T08:24:48.135Z,33.43
2022-12-15T08:29:53.051Z,32.70
2022-12-15T08:35:00.132Z,37.23
2022-12-15T08:40:04.923Z,43.60
2022-12-15T08:45:07.365Z,38.13
2022-12-15T08:50:09.675Z,27.83
2022-12-15T08:55:11.606Z,26.53
2022-12-15T09:00:16.344Z,28.90
2022-12-15T09:05:21.389Z,24.13
2022-12-15T09:10:23.751Z,31.53
2022-12-15T09:15:45.344Z,29.67
2022-12-15T09:20:50.607Z,31.67
2022-12-15T09:26:09.612Z,24.37
2022-12-15T09:31:22.979Z,20.47
2022-12-15T09:36:27.708Z,21.67
2022-12-15T09:41:33.239Z,23.40
2022-12-15T09:46:59.754Z,23.40
2022-12-15T09:52:10.627Z,21.13
2022-12-15T09:57:42.622Z,21.40
2022-12-15T10:03:22.682Z,18.90
2022-12-15T10:08:30.363Z,18.33
2022-12-15T10:13:46.556Z,15.73
2022-12-15T10:19:08.952Z,17.60
2022-12-15T10:24:31.409Z,25.27
2022-12-15T10:29:51.315Z,17.77
2022-12-15T10:34:55.474Z,19.40
2022-12-15T10:39:57.251Z,22.27
2022-12-15T10:45:02.068Z,20.30
2022-12-15T10:50:26.073Z,20.00
2022-12-15T10:55:50.078Z,26.93
2022-12-15T11:01:14.803Z,28.67
2022-12-15T11:06:25.086Z,20.90
2022-12-15T11:11:51.139Z,24.90
2022-12-15T11:16:59.945Z,21.30
2022-12-15T11:22:10.968Z,22.60
2022-12-15T11:27:21.082Z,17.67
2022-12-15T11:32:31.900Z,17.70
2022-12-15T11:37:55.542Z,14.70
2022-12-15T11:43:22.794Z,20.90
2022-12-15T11:48:41.907Z,20.57
2022-12-15T11:54:20.346Z,23.57
2022-12-15T11:59:31.183Z,14.20
2022-12-15T12:04:45.185Z,17.10
2022-12-15T12:10:16.439Z,17.40
2022-12-15T12:15:33.107Z,16.87
2022-12-15T12:20:45.667Z,14.37
2022-12-15T12:26:30.402Z,16.07
2022-12-15T12:32:25.172Z,17.87
2022-12-15T12:37:34.559Z,14.83
2022-12-15T12:43:13.501Z,17.07
2022-12-15T12:48:32.317Z,14.83
2022-12-15T12:53:36.595Z,12.77
2022-12-15T12:58:44.292Z,18.37
2022-12-15T13:04:06.758Z,13.20
2022-12-15T13:09:16.958Z,16.60
2022-12-15T13:14:25.885Z,15.77
2022-12-15T13:20:03.210Z,16.17
2022-12-15T13:25:26.978Z,14.43
2022-12-15T13:30:28.977Z,19.67
2022-12-15T13:35:37.723Z,16.50
2022-12-15T13:40:54.015Z,12.80
2022-12-15T13:46:02.340Z,15.60
2022-12-15T13:51:21.240Z,13.77
2022-12-15T13:57:05.098Z,20.80
2022-12-15T14:02:32.661Z,17.13
2022-12-15T14:07:34.923Z,18.00
2022-12-15T14:12:42.035Z,19.43
2022-12-15T14:17:53.904Z,14.67
2022-12-15T14:22:58.821Z,20.13
2022-12-15T14:28:05.477Z,15.30
2022-12-15T14:33:14.521Z,15.47
2022-12-15T14:38:23.967Z,15.90
2022-12-15T14:43:35.388Z,16.30
2022-12-15T14:48:41.861Z,15.93
2022-12-15T14:53:49.053Z,19.60
2022-12-15T14:59:18.590Z,15.03
2022-12-15T15:04:26.193Z,19.23
2022-12-15T15:09:31.119Z,24.93
2022-12-15T15:14:38.885Z,24.70
2022-12-15T15:19:48.038Z,20.03
2022-12-15T15:24:51.350Z,24.43
2022-12-15T15:30:15.209Z,18.60
2022-12-15T15:35:17.456Z,20.27
2022-12-15T15:40:21.494Z,19.60
2022-12-15T15:45:25.456Z,21.83
2022-12-15T15:50:30.950Z,22.13
2022-12-15T15:55:39.879Z,24.17
2022-12-15T16:00:46.807Z,22.50
2022-12-15T16:05:51.015Z,23.20
2022-12-15T16:10:53.022Z,18.60
2022-12-15T16:15:54.877Z,19.07
2022-12-15T16:20:58.729Z,24.07
2022-12-15T16:26:03.703Z,26.60
2022-12-15T16:31:05.675Z,21.30
2022-12-15T16:36:15.792Z,20.83
2022-12-15T16:41:23.288Z,24.93
2022-12-15T16:46:29.878Z,29.00
2022-12-15T16:51:39.042Z,23.33
2022-12-15T16:56:42.529Z,24.20
2022-12-15T17:01:44.856Z,25.27
2022-12-15T17:06:49.750Z,23.90
2022-12-15T17:11:52.102Z,30.20
2022-12-15T17:16:54.928Z,31.40
2022-12-15T17:22:01.756Z,29.60
2022-12-15T17:27:05.143Z,28.30
2022-12-15T17:32:11.370Z,34.37
2022-12-15T17:37:16.173Z,31.37
2022-12-15T17:42:19.650Z,35.97
2022-12-15T17:47:25.390Z,35.57
2022-12-15T17:52:30.280Z,32.57
2022-12-15T17:57:37.075Z,31.93
2022-12-15T18:02:39.900Z,38.83
2022-12-15T18:08:00.800Z,35.40
2022-12-15T18:13:21.083Z,30.90
2022-12-15T18:18:25.917Z,37.77
2022-12-15T18:23:31.147Z,38.80
2022-12-15T18:28:37.506Z,40.77
2022-12-15T18:33:39.255Z,37.60
2022-12-15T18:38:45.885Z,38.43
2022-12-15T18:43:48.618Z,41.57
2022-12-15T18:48:50.370Z,37.37
2022-12-15T18:53:52.053Z,37.40
2022-12-15T18:58:53.764Z,36.60
2022-12-15T19:03:55.530Z,31.77
2022-12-15T19:08:59.266Z,35.30
2022-12-15T19:14:04.109Z,33.27
2022-12-15T19:19:24.390Z,31.17
2022-12-15T19:24:49.821Z,33.97
2022-12-15T19:29:52.635Z,33.57
2022-12-15T19:34:55.302Z,37.57
2022-12-15T19:40:01.108Z,38.40
2022-12-15T19:45:19.498Z,41.17
2022-12-15T19:50:26.725Z,38.30
2022-12-15T19:55:32.728Z,37.57
2022-12-15T20:00:36.806Z,41.57
2022-12-15T20:05:41.398Z,41.63
2022-12-15T20:10:43.204Z,48.03
2022-12-15T20:15:45.606Z,39.70
2022-12-15T20:20:48.260Z,41.93
2022-12-15T20:25:49.998Z,39.87
2022-12-15T20:30:58.260Z,36.23
2022-12-15T20:36:01.050Z,39.47
2022-12-15T20:41:05.983Z,38.90
2022-12-15T20:46:18.566Z,41.87
2022-12-15T20:51:20.659Z,39.70
2022-12-15T20:56:23.293Z,41.70
2022-12-15T21:01:26.005Z,37.57
2022-12-15T21:06:28.518Z,38.13
2022-12-15T21:11:33.455Z,36.43
2022-12-15T21:16:40.049Z,36.93
2022-12-15T21:21:49.298Z,46.80
2022-12-15T21:26:54.828Z,38.93
2022-12-15T21:31:59.143Z,39.07
2022-12-15T21:37:02.868Z,41.23
2022-12-15T21:42:11.533Z,39.63
2022-12-15T21:47:49.031Z,43.10
2022-12-15T21:52:50.746Z,35.73
2022-12-15T21:57:54.137Z,38.63
2022-12-15T22:02:58.734Z,40.70
2022-12-15T22:08:23.255Z,40.87
2022-12-15T22:13:24.912Z,40.90
2022-12-15T22:18:27.441Z,41.17
2022-12-15T22:23:29.095Z,38.30
2022-12-15T22:28:31.946Z,44.20
2022-12-15T22:33:34.901Z,41.17
2022-12-15T22:38:36.633Z,39.40
2022-12-15T22:43:40.954Z,41.87
2022-12-15T22:48:45.491Z,38.60
2022-12-15T22:53:47.360Z,42.17
2022-12-15T22:58:55.006Z,40.20
2022-12-15T23:03:56.788Z,45.90
2022-12-15T23:09:00.756Z,41.93
2022-12-15T23:14:06.349Z,38.93
2022-12-15T23:19:23.937Z,41.40
2022-12-15T23:24:26.814Z,41.70
2022-12-15T23:29:33.029Z,42.20
2022-12-15T23:34:34.750Z,50.87
2022-12-15T23:39:38.679Z,46.67
2022-12-15T23:44:41.267Z,45.37
2022-12-15T23:49:42.958Z,41.43
2022-12-15T23:54:47.317Z,50.03
2022-12-15T23:59:50.009Z,50.23
